sensor_id;sensor_type;location;lat;lon;timestamp;P1;durP1;ratioP1;P2;durP2;ratioP2
34926;SDS011;21132;48.308;14.274;2022-10-16T00:01:26;12.45;;;2.88;;
34926;SDS011;21132;48.308;14.274;2022-10-16T00:03:54;3.72;;;2.88;;
34926;SDS011;21132;48.308;14.274;2022-10-16T00:06:21;4.13;;;2.78;;
34926;SDS011;21132;48.308;14.274;2022-10-16T00:08:48;3.47;;;2.15;;
34926;SDS011;21132;48.308;14.274;2022-10-16T00:11:22;4.38;;;2.00;;
34926;SDS011;21132;48.308;14.274;2022-10-16T00:13:50;5.63;;;2.03;;
34926;SDS011;21132;48.308;14.274;2022-10-16T00:16:20;3.20;;;2.53;;
34926;SDS011;21132;48.308;14.274;2022-10-16T00:18:45;6.38;;;2.10;;
34926;SDS011;21132;48.308;14.274;2022-10-16T00:21:13;2.58;;;1.92;;
34926;SDS011;21132;48.308;14.274;2022-10-16T00:23:53;2.65;;;1.92;;
34926;SDS011;21132;48.308;14.274;2022-10-16T00:26:21;10.27;;;2.58;;
34926;SDS011;21132;48.308;14.274;2022-10-16T00:28:50;6.40;;;2.28;;
34926;SDS011;21132;48.308;14.274;2022-10-16T00:31:17;3.42;;;2.50;;
34926;SDS011;21132;48.308;14.274;2022-10-16T00:33:45;3.17;;;2.05;;
34926;SDS011;21132;48.308;14.274;2022-10-16T00:36:13;12.88;;;2.75;;
34926;SDS011;21132;48.308;14.274;2022-10-16T00:38:40;6.28;;;2.30;;
34926;SDS011;21132;48.308;14.274;2022-10-16T00:41:07;2.83;;;2.10;;
34926;SDS011;21132;48.308;14.274;2022-10-16T00:48:48;3.33;;;2.10;;
34926;SDS011;21132;48.308;14.274;2022-10-16T00:51:30;3.65;;;2.50;;
34926;SDS011;21132;48.308;14.274;2022-10-16T00:54:12;6.43;;;1.90;;
34926;SDS011;21132;48.308;14.274;2022-10-16T00:56:44;7.63;;;2.42;;
34926;SDS011;21132;48.308;14.274;2022-10-16T00:59:16;6.20;;;2.58;;
34926;SDS011;21132;48.308;14.274;2022-10-16T01:01:55;3.30;;;2.13;;
34926;SDS011;21132;48.308;14.274;2022-10-16T01:04:22;4.40;;;2.20;;
34926;SDS011;21132;48.308;14.274;2022-10-16T01:09:41;8.68;;;2.67;;
34926;SDS011;21132;48.308;14.274;2022-10-16T01:15:25;2.80;;;2.17;;
34926;SDS011;21132;48.308;14.274;2022-10-16T01:17:57;4.90;;;2.20;;
34926;SDS011;21132;48.308;14.274;2022-10-16T01:20:31;4.32;;;1.92;;
34926;SDS011;21132;48.308;14.274;2022-10-16T01:23:02;8.57;;;2.05;;
34926;SDS011;21132;48.308;14.274;2022-10-16T01:28:10;6.32;;;1.75;;
34926;SDS011;21132;48.308;14.274;2022-10-16T01:30:38;2.70;;;1.70;;
34926;SDS011;21132;48.308;14.274;2022-10-16T01:35:46;4.45;;;2.22;;
34926;SDS011;21132;48.308;14.274;2022-10-16T01:38:30;3.17;;;2.03;;
34926;SDS011;21132;48.308;14.274;2022-10-16T01:41:07;3.17;;;1.88;;
34926;SDS011;21132;48.308;14.274;2022-10-16T01:43:43;10.18;;;2.20;;
34926;SDS011;21132;48.308;14.274;2022-10-16T01:46:18;2.58;;;2.10;;
34926;SDS011;21132;48.308;14.274;2022-10-16T01:48:46;3.95;;;1.90;;
34926;SDS011;21132;48.308;14.274;2022-10-16T01:51:14;5.45;;;2.10;;
34926;SDS011;21132;48.308;14.274;2022-10-16T01:53:42;3.85;;;2.50;;
34926;SDS011;21132;48.308;14.274;2022-10-16T01:56:13;4.45;;;2.40;;
34926;SDS011;21132;48.308;14.274;2022-10-16T01:58:44;7.72;;;2.42;;
34926;SDS011;21132;48.308;14.274;2022-10-16T02:01:23;5.63;;;1.90;;
34926;SDS011;21132;48.308;14.274;2022-10-16T02:03:52;3.35;;;2.00;;
34926;SDS011;21132;48.308;14.274;2022-10-16T02:06:22;4.30;;;2.33;;
34926;SDS011;21132;48.308;14.274;2022-10-16T02:08:48;3.28;;;2.10;;
34926;SDS011;21132;48.308;14.274;2022-10-16T02:11:14;3.45;;;1.70;;
34926;SDS011;21132;48.308;14.274;2022-10-16T02:13:48;12.68;;;2.38;;
34926;SDS011;21132;48.308;14.274;2022-10-16T02:16:20;4.15;;;2.08;;
34926;SDS011;21132;48.308;14.274;2022-10-16T02:18:46;3.50;;;1.85;;
34926;SDS011;21132;48.308;14.274;2022-10-16T02:29:50;3.60;;;2.20;;
34926;SDS011;21132;48.308;14.274;2022-10-16T02:32:23;3.00;;;1.90;;
34926;SDS011;21132;48.308;14.274;2022-10-16T02:34:52;3.03;;;2.10;;
34926;SDS011;21132;48.308;14.274;2022-10-16T02:37:19;5.65;;;2.00;;
34926;SDS011;21132;48.308;14.274;2022-10-16T02:39:45;3.17;;;2.10;;
34926;SDS011;21132;48.308;14.274;2022-10-16T02:42:14;3.65;;;2.08;;
34926;SDS011;21132;48.308;14.274;2022-10-16T02:44:40;6.53;;;2.17;;
34926;SDS011;21132;48.308;14.274;2022-10-16T02:47:05;6.75;;;2.38;;
34926;SDS011;21132;48.308;14.274;2022-10-16T02:49:31;5.30;;;2.00;;
34926;SDS011;21132;48.308;14.274;2022-10-16T02:51:57;3.03;;;2.17;;
34926;SDS011;21132;48.308;14.274;2022-10-16T02:54:23;4.72;;;2.10;;
34926;SDS011;21132;48.308;14.274;2022-10-16T02:56:49;2.72;;;2.20;;
34926;SDS011;21132;48.308;14.274;2022-10-16T02:59:15;8.38;;;2.38;;
34926;SDS011;21132;48.308;14.274;2022-10-16T03:01:41;7.45;;;2.45;;
34926;SDS011;21132;48.308;14.274;2022-10-16T03:04:06;3.72;;;2.90;;
34926;SDS011;21132;48.308;14.274;2022-10-16T03:06:32;6.55;;;2.80;;
34926;SDS011;21132;48.308;14.274;2022-10-16T03:08:58;5.05;;;2.70;;
34926;SDS011;21132;48.308;14.274;2022-10-16T03:11:24;5.22;;;2.25;;
34926;SDS011;21132;48.308;14.274;2022-10-16T03:13:49;5.13;;;2.10;;
34926;SDS011;21132;48.308;14.274;2022-10-16T03:16:15;13.48;;;2.25;;
34926;SDS011;21132;48.308;14.274;2022-10-16T03:18:41;6.60;;;2.60;;
34926;SDS011;21132;48.308;14.274;2022-10-16T03:21:07;16.90;;;2.90;;
34926;SDS011;21132;48.308;14.274;2022-10-16T03:23:32;25.42;;;2.78;;
34926;SDS011;21132;48.308;14.274;2022-10-16T03:25:58;14.50;;;3.35;;
34926;SDS011;21132;48.308;14.274;2022-10-16T03:28:24;12.82;;;3.45;;
34926;SDS011;21132;48.308;14.274;2022-10-16T03:30:50;13.65;;;3.30;;
34926;SDS011;21132;48.308;14.274;2022-10-16T03:33:16;23.77;;;3.20;;
34926;SDS011;21132;48.308;14.274;2022-10-16T03:35:42;42.58;;;3.13;;
34926;SDS011;21132;48.308;14.274;2022-10-16T03:38:07;24.55;;;2.20;;
34926;SDS011;21132;48.308;14.274;2022-10-16T03:40:33;19.35;;;2.67;;
34926;SDS011;21132;48.308;14.274;2022-10-16T03:42:59;15.27;;;2.75;;
34926;SDS011;21132;48.308;14.274;2022-10-16T03:45:25;23.00;;;3.08;;
34926;SDS011;21132;48.308;14.274;2022-10-16T03:47:52;23.77;;;3.50;;
34926;SDS011;21132;48.308;14.274;2022-10-16T03:50:18;62.70;;;3.67;;
34926;SDS011;21132;48.308;14.274;2022-10-16T03:52:44;27.60;;;3.00;;
34926;SDS011;21132;48.308;14.274;2022-10-16T03:55:10;52.10;;;3.22;;
34926;SDS011;21132;48.308;14.274;2022-10-16T03:57:36;44.97;;;3.90;;
34926;SDS011;21132;48.308;14.274;2022-10-16T04:00:02;33.13;;;2.97;;
34926;SDS011;21132;48.308;14.274;2022-10-16T04:02:28;14.73;;;2.58;;
34926;SDS011;21132;48.308;14.274;2022-10-16T04:04:53;12.80;;;1.90;;
34926;SDS011;21132;48.308;14.274;2022-10-16T04:07:19;11.32;;;2.30;;
34926;SDS011;21132;48.308;14.274;2022-10-16T04:09:45;7.22;;;2.50;;
34926;SDS011;21132;48.308;14.274;2022-10-16T04:12:11;3.35;;;2.40;;
34926;SDS011;21132;48.308;14.274;2022-10-16T04:14:37;2.40;;;2.20;;
34926;SDS011;21132;48.308;14.274;2022-10-16T04:17:02;2.83;;;2.13;;
34926;SDS011;21132;48.308;14.274;2022-10-16T04:19:28;2.42;;;2.00;;
34926;SDS011;21132;48.308;14.274;2022-10-16T04:21:54;3.53;;;1.80;;
34926;SDS011;21132;48.308;14.274;2022-10-16T04:24:20;1.40;;;1.25;;
34926;SDS011;21132;48.308;14.274;2022-10-16T04:26:45;1.98;;;1.65;;
34926;SDS011;21132;48.308;14.274;2022-10-16T04:29:11;2.40;;;1.33;;
34926;SDS011;21132;48.308;14.274;2022-10-16T04:31:37;7.53;;;1.60;;
34926;SDS011;21132;48.308;14.274;2022-10-16T04:34:02;1.60;;;1.30;;
34926;SDS011;21132;48.308;14.274;2022-10-16T04:36:28;5.38;;;1.50;;
34926;SDS011;21132;48.308;14.274;2022-10-16T04:38:54;1.95;;;1.50;;
34926;SDS011;21132;48.308;14.274;2022-10-16T04:41:19;1.52;;;1.42;;
34926;SDS011;21132;48.308;14.274;2022-10-16T04:43:45;2.17;;;1.70;;
34926;SDS011;21132;48.308;14.274;2022-10-16T04:46:11;2.42;;;1.70;;
34926;SDS011;21132;48.308;14.274;2022-10-16T04:48:37;2.53;;;2.03;;
34926;SDS011;21132;48.308;14.274;2022-10-16T04:51:03;2.20;;;1.50;;
34926;SDS011;21132;48.308;14.274;2022-10-16T04:53:29;2.15;;;1.88;;
34926;SDS011;21132;48.308;14.274;2022-10-16T04:55:54;1.90;;;1.70;;
34926;SDS011;21132;48.308;14.274;2022-10-16T04:58:22;4.53;;;1.77;;
34926;SDS011;21132;48.308;14.274;2022-10-16T05:00:48;7.15;;;1.70;;
34926;SDS011;21132;48.308;14.274;2022-10-16T05:03:13;5.75;;;2.63;;
34926;SDS011;21132;48.308;14.274;2022-10-16T05:05:43;3.08;;;2.67;;
34926;SDS011;21132;48.308;14.274;2022-10-16T05:08:10;4.63;;;1.90;;
34926;SDS011;21132;48.308;14.274;2022-10-16T05:10:40;2.33;;;1.90;;
34926;SDS011;21132;48.308;14.274;2022-10-16T05:13:07;2.63;;;1.95;;
34926;SDS011;21132;48.308;14.274;2022-10-16T05:15:33;3.50;;;1.85;;
34926;SDS011;21132;48.308;14.274;2022-10-16T05:17:59;2.60;;;1.85;;
34926;SDS011;21132;48.308;14.274;2022-10-16T05:20:25;3.88;;;2.30;;
34926;SDS011;21132;48.308;14.274;2022-10-16T05:22:51;2.60;;;2.03;;
34926;SDS011;21132;48.308;14.274;2022-10-16T05:25:17;2.28;;;1.83;;
34926;SDS011;21132;48.308;14.274;2022-10-16T05:27:43;6.25;;;2.30;;
34926;SDS011;21132;48.308;14.274;2022-10-16T05:30:12;7.68;;;2.38;;
34926;SDS011;21132;48.308;14.274;2022-10-16T05:32:38;4.43;;;2.65;;
34926;SDS011;21132;48.308;14.274;2022-10-16T05:35:04;5.55;;;3.45;;
34926;SDS011;21132;48.308;14.274;2022-10-16T05:37:30;40.58;;;4.57;;
34926;SDS011;21132;48.308;14.274;2022-10-16T05:39:56;17.63;;;2.60;;
34926;SDS011;21132;48.308;14.274;2022-10-16T05:42:21;10.35;;;2.47;;
34926;SDS011;21132;48.308;14.274;2022-10-16T05:44:47;12.27;;;2.40;;
34926;SDS011;21132;48.308;14.274;2022-10-16T05:47:13;23.33;;;1.90;;
34926;SDS011;21132;48.308;14.274;2022-10-16T05:49:39;10.35;;;2.22;;
34926;SDS011;21132;48.308;14.274;2022-10-16T05:52:05;7.85;;;2.00;;
34926;SDS011;21132;48.308;14.274;2022-10-16T05:54:31;19.63;;;1.88;;
34926;SDS011;21132;48.308;14.274;2022-10-16T05:56:57;13.30;;;1.98;;
34926;SDS011;21132;48.308;14.274;2022-10-16T05:59:22;3.40;;;1.73;;
34926;SDS011;21132;48.308;14.274;2022-10-16T06:01:48;20.38;;;2.30;;
34926;SDS011;21132;48.308;14.274;2022-10-16T06:04:14;6.85;;;2.10;;
34926;SDS011;21132;48.308;14.274;2022-10-16T06:06:40;9.50;;;2.17;;
34926;SDS011;21132;48.308;14.274;2022-10-16T06:09:06;21.63;;;3.05;;
34926;SDS011;21132;48.308;14.274;2022-10-16T06:11:32;15.20;;;4.00;;
34926;SDS011;21132;48.308;14.274;2022-10-16T06:13:59;15.98;;;4.43;;
34926;SDS011;21132;48.308;14.274;2022-10-16T06:16:28;19.75;;;4.85;;
34926;SDS011;21132;48.308;14.274;2022-10-16T06:18:55;16.38;;;3.72;;
34926;SDS011;21132;48.308;14.274;2022-10-16T06:21:22;24.17;;;4.53;;
34926;SDS011;21132;48.308;14.274;2022-10-16T06:23:50;23.58;;;4.95;;
34926;SDS011;21132;48.308;14.274;2022-10-16T06:26:17;14.00;;;4.03;;
34926;SDS011;21132;48.308;14.274;2022-10-16T06:28:44;11.65;;;3.95;;
34926;SDS011;21132;48.308;14.274;2022-10-16T06:31:10;18.30;;;4.68;;
34926;SDS011;21132;48.308;14.274;2022-10-16T06:33:37;17.77;;;4.22;;
34926;SDS011;21132;48.308;14.274;2022-10-16T06:36:05;37.92;;;4.57;;
34926;SDS011;21132;48.308;14.274;2022-10-16T06:38:36;19.27;;;4.40;;
34926;SDS011;21132;48.308;14.274;2022-10-16T06:41:02;9.50;;;4.28;;
34926;SDS011;21132;48.308;14.274;2022-10-16T06:43:32;13.73;;;4.50;;
34926;SDS011;21132;48.308;14.274;2022-10-16T06:46:00;22.88;;;4.90;;
34926;SDS011;21132;48.308;14.274;2022-10-16T06:48:26;18.33;;;4.13;;
34926;SDS011;21132;48.308;14.274;2022-10-16T06:50:56;4.63;;;3.38;;
34926;SDS011;21132;48.308;14.274;2022-10-16T06:53:23;3.95;;;3.15;;
34926;SDS011;21132;48.308;14.274;2022-10-16T06:55:49;7.53;;;3.05;;
34926;SDS011;21132;48.308;14.274;2022-10-16T06:58:15;5.28;;;3.50;;
34926;SDS011;21132;48.308;14.274;2022-10-16T07:00:40;3.33;;;2.85;;
34926;SDS011;21132;48.308;14.274;2022-10-16T07:03:06;3.92;;;3.15;;
34926;SDS011;21132;48.308;14.274;2022-10-16T07:05:36;5.05;;;3.10;;
34926;SDS011;21132;48.308;14.274;2022-10-16T07:08:03;2.50;;;2.25;;
34926;SDS011;21132;48.308;14.274;2022-10-16T07:10:30;4.60;;;3.35;;
34926;SDS011;21132;48.308;14.274;2022-10-16T07:12:56;5.70;;;3.47;;
34926;SDS011;21132;48.308;14.274;2022-10-16T07:15:22;4.20;;;3.38;;
34926;SDS011;21132;48.308;14.274;2022-10-16T07:17:49;2.97;;;2.58;;
34926;SDS011;21132;48.308;14.274;2022-10-16T07:20:15;3.33;;;2.83;;
34926;SDS011;21132;48.308;14.274;2022-10-16T07:22:41;3.90;;;2.58;;
34926;SDS011;21132;48.308;14.274;2022-10-16T07:25:07;10.05;;;3.20;;
34926;SDS011;21132;48.308;14.274;2022-10-16T07:27:33;6.38;;;3.00;;
34926;SDS011;21132;48.308;14.274;2022-10-16T07:29:59;4.82;;;3.65;;
34926;SDS011;21132;48.308;14.274;2022-10-16T07:32:25;5.60;;;3.95;;
34926;SDS011;21132;48.308;14.274;2022-10-16T07:34:51;5.30;;;4.20;;
34926;SDS011;21132;48.308;14.274;2022-10-16T07:37:17;10.38;;;6.70;;
34926;SDS011;21132;48.308;14.274;2022-10-16T07:39:43;8.25;;;5.53;;
34926;SDS011;21132;48.308;14.274;2022-10-16T07:42:09;9.05;;;4.22;;
34926;SDS011;21132;48.308;14.274;2022-10-16T07:44:35;5.50;;;4.40;;
34926;SDS011;21132;48.308;14.274;2022-10-16T07:47:01;9.52;;;5.32;;
34926;SDS011;21132;48.308;14.274;2022-10-16T07:49:26;11.60;;;5.07;;
34926;SDS011;21132;48.308;14.274;2022-10-16T07:51:52;15.38;;;8.05;;
34926;SDS011;21132;48.308;14.274;2022-10-16T07:54:18;13.00;;;7.53;;
34926;SDS011;21132;48.308;14.274;2022-10-16T07:56:44;14.93;;;8.93;;
34926;SDS011;21132;48.308;14.274;2022-10-16T07:59:10;21.23;;;9.80;;
34926;SDS011;21132;48.308;14.274;2022-10-16T08:01:36;25.02;;;11.50;;
34926;SDS011;21132;48.308;14.274;2022-10-16T08:04:02;31.00;;;13.63;;
34926;SDS011;21132;48.308;14.274;2022-10-16T08:06:27;25.02;;;12.63;;
34926;SDS011;21132;48.308;14.274;2022-10-16T08:08:54;33.17;;;14.73;;
34926;SDS011;21132;48.308;14.274;2022-10-16T08:11:20;42.22;;;17.10;;
34926;SDS011;21132;48.308;14.274;2022-10-16T08:13:46;54.30;;;23.38;;
34926;SDS011;21132;48.308;14.274;2022-10-16T08:16:12;49.40;;;22.13;;
34926;SDS011;21132;48.308;14.274;2022-10-16T08:18:38;54.08;;;23.30;;
34926;SDS011;21132;48.308;14.274;2022-10-16T08:21:05;57.80;;;24.52;;
34926;SDS011;21132;48.308;14.274;2022-10-16T08:23:37;54.97;;;22.65;;
34926;SDS011;21132;48.308;14.274;2022-10-16T08:26:03;48.38;;;22.73;;
34926;SDS011;21132;48.308;14.274;2022-10-16T08:28:31;57.45;;;26.10;;
34926;SDS011;21132;48.308;14.274;2022-10-16T08:31:04;66.80;;;26.55;;
34926;SDS011;21132;48.308;14.274;2022-10-16T08:33:34;74.28;;;33.67;;
34926;SDS011;21132;48.308;14.274;2022-10-16T08:36:00;76.93;;;34.33;;
34926;SDS011;21132;48.308;14.274;2022-10-16T08:38:27;78.15;;;31.58;;
34926;SDS011;21132;48.308;14.274;2022-10-16T08:40:53;63.28;;;29.27;;
34926;SDS011;21132;48.308;14.274;2022-10-16T08:49:05;58.15;;;27.85;;
34926;SDS011;21132;48.308;14.274;2022-10-16T08:51:37;62.35;;;27.63;;
34926;SDS011;21132;48.308;14.274;2022-10-16T08:54:04;47.28;;;23.65;;
34926;SDS011;21132;48.308;14.274;2022-10-16T08:56:39;50.72;;;23.77;;
34926;SDS011;21132;48.308;14.274;2022-10-16T08:59:06;43.33;;;23.20;;
34926;SDS011;21132;48.308;14.274;2022-10-16T09:01:41;41.47;;;21.02;;
34926;SDS011;21132;48.308;14.274;2022-10-16T09:07:40;48.97;;;24.05;;
34926;SDS011;21132;48.308;14.274;2022-10-16T09:17:37;38.65;;;20.00;;
34926;SDS011;21132;48.308;14.274;2022-10-16T09:23:07;28.75;;;15.88;;
34926;SDS011;21132;48.308;14.274;2022-10-16T09:25:52;33.63;;;16.67;;
34926;SDS011;21132;48.308;14.274;2022-10-16T09:28:20;33.05;;;15.85;;
34926;SDS011;21132;48.308;14.274;2022-10-16T09:30:46;32.10;;;15.00;;
34926;SDS011;21132;48.308;14.274;2022-10-16T09:33:16;27.60;;;13.85;;
34926;SDS011;21132;48.308;14.274;2022-10-16T09:35:45;20.90;;;13.07;;
34926;SDS011;21132;48.308;14.274;2022-10-16T09:40:47;27.70;;;13.48;;
34926;SDS011;21132;48.308;14.274;2022-10-16T09:43:26;29.98;;;13.00;;
34926;SDS011;21132;48.308;14.274;2022-10-16T09:48:50;25.52;;;12.85;;
34926;SDS011;21132;48.308;14.274;2022-10-16T09:51:20;22.48;;;13.73;;
34926;SDS011;21132;48.308;14.274;2022-10-16T09:53:53;22.00;;;12.95;;
34926;SDS011;21132;48.308;14.274;2022-10-16T09:56:22;24.08;;;12.60;;
34926;SDS011;21132;48.308;14.274;2022-10-16T09:58:54;19.02;;;12.00;;
34926;SDS011;21132;48.308;14.274;2022-10-16T10:01:24;21.73;;;11.63;;
34926;SDS011;21132;48.308;14.274;2022-10-16T10:03:57;26.02;;;11.98;;
34926;SDS011;21132;48.308;14.274;2022-10-16T10:06:31;18.45;;;11.40;;
34926;SDS011;21132;48.308;14.274;2022-10-16T10:09:00;16.45;;;10.35;;
34926;SDS011;21132;48.308;14.274;2022-10-16T10:11:42;17.42;;;10.95;;
34926;SDS011;21132;48.308;14.274;2022-10-16T10:17:11;19.45;;;10.52;;
34926;SDS011;21132;48.308;14.274;2022-10-16T10:19:40;19.58;;;11.35;;
34926;SDS011;21132;48.308;14.274;2022-10-16T10:35:55;17.50;;;9.70;;
34926;SDS011;21132;48.308;14.274;2022-10-16T10:41:44;12.68;;;8.13;;
34926;SDS011;21132;48.308;14.274;2022-10-16T10:47:26;19.65;;;9.40;;
34926;SDS011;21132;48.308;14.274;2022-10-16T10:50:20;14.10;;;7.70;;
34926;SDS011;21132;48.308;14.274;2022-10-16T10:58:29;13.70;;;7.03;;
34926;SDS011;21132;48.308;14.274;2022-10-16T11:01:16;13.98;;;6.43;;
34926;SDS011;21132;48.308;14.274;2022-10-16T11:09:48;12.65;;;6.53;;
34926;SDS011;21132;48.308;14.274;2022-10-16T11:12:20;13.45;;;6.13;;
34926;SDS011;21132;48.308;14.274;2022-10-16T11:20:45;13.63;;;5.82;;
34926;SDS011;21132;48.308;14.274;2022-10-16T11:23:17;11.93;;;5.22;;
34926;SDS011;21132;48.308;14.274;2022-10-16T11:25:52;11.10;;;5.32;;
34926;SDS011;21132;48.308;14.274;2022-10-16T11:33:23;8.68;;;5.03;;
34926;SDS011;21132;48.308;14.274;2022-10-16T11:36:17;8.88;;;4.65;;
34926;SDS011;21132;48.308;14.274;2022-10-16T11:41:33;10.18;;;3.78;;
34926;SDS011;21132;48.308;14.274;2022-10-16T11:46:54;10.57;;;4.63;;
34926;SDS011;21132;48.308;14.274;2022-10-16T11:49:29;14.85;;;5.03;;
34926;SDS011;21132;48.308;14.274;2022-10-16T11:54:57;8.30;;;4.97;;
34926;SDS011;21132;48.308;14.274;2022-10-16T11:57:31;11.75;;;4.18;;
34926;SDS011;21132;48.308;14.274;2022-10-16T12:10:36;10.50;;;4.75;;
34926;SDS011;21132;48.308;14.274;2022-10-16T12:13:04;6.05;;;4.15;;
34926;SDS011;21132;48.308;14.274;2022-10-16T12:15:49;9.15;;;4.15;;
34926;SDS011;21132;48.308;14.274;2022-10-16T12:18:22;7.95;;;3.95;;
34926;SDS011;21132;48.308;14.274;2022-10-16T12:20:58;8.02;;;3.50;;
34926;SDS011;21132;48.308;14.274;2022-10-16T12:23:30;11.52;;;3.85;;
34926;SDS011;21132;48.308;14.274;2022-10-16T12:26:00;11.20;;;4.32;;
34926;SDS011;21132;48.308;14.274;2022-10-16T12:28:28;7.53;;;3.40;;
34926;SDS011;21132;48.308;14.274;2022-10-16T12:31:00;10.77;;;5.22;;
34926;SDS011;21132;48.308;14.274;2022-10-16T12:33:34;15.15;;;5.75;;
34926;SDS011;21132;48.308;14.274;2022-10-16T12:36:13;10.93;;;5.90;;
34926;SDS011;21132;48.308;14.274;2022-10-16T12:38:51;20.90;;;7.53;;
34926;SDS011;21132;48.308;14.274;2022-10-16T12:41:25;17.20;;;7.68;;
34926;SDS011;21132;48.308;14.274;2022-10-16T12:48:43;11.85;;;5.63;;
34926;SDS011;21132;48.308;14.274;2022-10-16T12:59:15;19.52;;;10.52;;
34926;SDS011;21132;48.308;14.274;2022-10-16T13:05:03;21.83;;;7.30;;
34926;SDS011;21132;48.308;14.274;2022-10-16T13:13:50;11.43;;;5.53;;
34926;SDS011;21132;48.308;14.274;2022-10-16T13:16:34;14.30;;;7.78;;
34926;SDS011;21132;48.308;14.274;2022-10-16T13:21:55;17.15;;;7.05;;
34926;SDS011;21132;48.308;14.274;2022-10-16T13:25:13;14.95;;;8.00;;
34926;SDS011;21132;48.308;14.274;2022-10-16T13:32:54;11.85;;;6.80;;
34926;SDS011;21132;48.308;14.274;2022-10-16T13:35:28;9.52;;;5.38;;
34926;SDS011;21132;48.308;14.274;2022-10-16T13:40:36;11.82;;;5.68;;
34926;SDS011;21132;48.308;14.274;2022-10-16T13:43:12;14.07;;;6.32;;
34926;SDS011;21132;48.308;14.274;2022-10-16T13:45:38;15.55;;;7.80;;
34926;SDS011;21132;48.308;14.274;2022-10-16T13:48:05;9.30;;;4.68;;
34926;SDS011;21132;48.308;14.274;2022-10-16T13:50:34;8.63;;;5.63;;
34926;SDS011;21132;48.308;14.274;2022-10-16T13:53:04;16.40;;;10.15;;
34926;SDS011;21132;48.308;14.274;2022-10-16T13:55:30;14.13;;;8.55;;
34926;SDS011;21132;48.308;14.274;2022-10-16T14:00:59;11.25;;;5.80;;
34926;SDS011;21132;48.308;14.274;2022-10-16T14:03:30;13.55;;;7.70;;
34926;SDS011;21132;48.308;14.274;2022-10-16T14:05:58;19.38;;;11.32;;
34926;SDS011;21132;48.308;14.274;2022-10-16T14:08:26;10.20;;;5.18;;
34926;SDS011;21132;48.308;14.274;2022-10-16T14:10:56;9.93;;;6.07;;
34926;SDS011;21132;48.308;14.274;2022-10-16T14:13:29;15.52;;;7.60;;
34926;SDS011;21132;48.308;14.274;2022-10-16T14:15:55;13.70;;;5.78;;
34926;SDS011;21132;48.308;14.274;2022-10-16T14:18:25;12.88;;;7.35;;
34926;SDS011;21132;48.308;14.274;2022-10-16T14:20:53;11.30;;;6.28;;
34926;SDS011;21132;48.308;14.274;2022-10-16T14:23:23;11.68;;;4.40;;
34926;SDS011;21132;48.308;14.274;2022-10-16T14:26:14;8.90;;;3.38;;
34926;SDS011;21132;48.308;14.274;2022-10-16T14:28:42;6.30;;;3.97;;
34926;SDS011;21132;48.308;14.274;2022-10-16T14:31:26;23.20;;;14.38;;
34926;SDS011;21132;48.308;14.274;2022-10-16T14:33:53;9.88;;;6.03;;
34926;SDS011;21132;48.308;14.274;2022-10-16T14:36:19;14.75;;;9.10;;
34926;SDS011;21132;48.308;14.274;2022-10-16T14:41:25;9.68;;;5.05;;
34926;SDS011;21132;48.308;14.274;2022-10-16T14:43:55;5.22;;;3.10;;
34926;SDS011;21132;48.308;14.274;2022-10-16T14:51:36;13.45;;;7.10;;
34926;SDS011;21132;48.308;14.274;2022-10-16T14:54:03;13.40;;;9.38;;
34926;SDS011;21132;48.308;14.274;2022-10-16T14:56:30;10.07;;;5.47;;
34926;SDS011;21132;48.308;14.274;2022-10-16T14:59:07;6.88;;;3.72;;
34926;SDS011;21132;48.308;14.274;2022-10-16T15:01:43;4.88;;;3.55;;
34926;SDS011;21132;48.308;14.274;2022-10-16T15:04:10;7.55;;;3.70;;
34926;SDS011;21132;48.308;14.274;2022-10-16T15:06:37;3.30;;;2.47;;
34926;SDS011;21132;48.308;14.274;2022-10-16T15:09:03;2.20;;;1.27;;
34926;SDS011;21132;48.308;14.274;2022-10-16T15:11:29;3.58;;;1.90;;
34926;SDS011;21132;48.308;14.274;2022-10-16T15:13:57;1.77;;;1.10;;
34926;SDS011;21132;48.308;14.274;2022-10-16T15:16:23;4.88;;;1.35;;
34926;SDS011;21132;48.308;14.274;2022-10-16T15:18:49;1.80;;;1.25;;
34926;SDS011;21132;48.308;14.274;2022-10-16T15:21:25;1.58;;;1.10;;
34926;SDS011;21132;48.308;14.274;2022-10-16T15:23:56;1.23;;;0.90;;
34926;SDS011;21132;48.308;14.274;2022-10-16T15:26:24;5.22;;;0.77;;
34926;SDS011;21132;48.308;14.274;2022-10-16T15:28:50;1.50;;;1.00;;
34926;SDS011;21132;48.308;14.274;2022-10-16T15:31:16;2.08;;;0.98;;
34926;SDS011;21132;48.308;14.274;2022-10-16T15:33:42;1.65;;;0.80;;
34926;SDS011;21132;48.308;14.274;2022-10-16T15:36:08;1.42;;;1.27;;
34926;SDS011;21132;48.308;14.274;2022-10-16T15:38:34;3.35;;;1.20;;
34926;SDS011;21132;48.308;14.274;2022-10-16T15:41:00;3.05;;;1.00;;
34926;SDS011;21132;48.308;14.274;2022-10-16T15:43:26;1.42;;;0.93;;
34926;SDS011;21132;48.308;14.274;2022-10-16T15:46:06;1.88;;;1.10;;
34926;SDS011;21132;48.308;14.274;2022-10-16T15:48:39;4.70;;;1.40;;
34926;SDS011;21132;48.308;14.274;2022-10-16T15:51:05;3.60;;;1.10;;
34926;SDS011;21132;48.308;14.274;2022-10-16T15:53:32;8.13;;;1.50;;
34926;SDS011;21132;48.308;14.274;2022-10-16T15:56:02;2.95;;;1.65;;
34926;SDS011;21132;48.308;14.274;2022-10-16T15:58:28;2.60;;;1.70;;
34926;SDS011;21132;48.308;14.274;2022-10-16T16:00:58;2.20;;;1.30;;
34926;SDS011;21132;48.308;14.274;2022-10-16T16:03:29;2.92;;;1.55;;
34926;SDS011;21132;48.308;14.274;2022-10-16T16:05:55;2.45;;;1.55;;
34926;SDS011;21132;48.308;14.274;2022-10-16T16:08:21;3.65;;;1.63;;
34926;SDS011;21132;48.308;14.274;2022-10-16T16:10:57;5.13;;;1.63;;
34926;SDS011;21132;48.308;14.274;2022-10-16T16:13:24;5.88;;;1.80;;
34926;SDS011;21132;48.308;14.274;2022-10-16T16:15:51;2.63;;;1.60;;
34926;SDS011;21132;48.308;14.274;2022-10-16T16:18:19;5.97;;;1.48;;
34926;SDS011;21132;48.308;14.274;2022-10-16T16:20:45;2.45;;;1.50;;
34926;SDS011;21132;48.308;14.274;2022-10-16T16:23:10;4.13;;;1.40;;
34926;SDS011;21132;48.308;14.274;2022-10-16T16:25:36;8.15;;;1.30;;
34926;SDS011;21132;48.308;14.274;2022-10-16T16:28:02;3.17;;;1.58;;
34926;SDS011;21132;48.308;14.274;2022-10-16T16:30:28;8.25;;;1.77;;
34926;SDS011;21132;48.308;14.274;2022-10-16T16:32:54;3.70;;;1.75;;
34926;SDS011;21132;48.308;14.274;2022-10-16T16:35:19;4.72;;;2.60;;
34926;SDS011;21132;48.308;14.274;2022-10-16T16:37:46;3.85;;;2.30;;
34926;SDS011;21132;48.308;14.274;2022-10-16T16:40:12;4.07;;;2.60;;
34926;SDS011;21132;48.308;14.274;2022-10-16T16:42:38;7.65;;;2.80;;
34926;SDS011;21132;48.308;14.274;2022-10-16T16:45:04;6.70;;;2.47;;
34926;SDS011;21132;48.308;14.274;2022-10-16T16:47:31;3.15;;;2.20;;
34926;SDS011;21132;48.308;14.274;2022-10-16T16:49:57;4.05;;;2.28;;
34926;SDS011;21132;48.308;14.274;2022-10-16T16:52:22;5.75;;;3.03;;
34926;SDS011;21132;48.308;14.274;2022-10-16T16:54:48;5.55;;;2.72;;
34926;SDS011;21132;48.308;14.274;2022-10-16T16:57:19;7.22;;;3.20;;
34926;SDS011;21132;48.308;14.274;2022-10-16T16:59:46;14.10;;;4.40;;
34926;SDS011;21132;48.308;14.274;2022-10-16T17:02:17;10.30;;;4.50;;
34926;SDS011;21132;48.308;14.274;2022-10-16T17:04:43;9.18;;;4.30;;
34926;SDS011;21132;48.308;14.274;2022-10-16T17:07:10;6.63;;;3.10;;
34926;SDS011;21132;48.308;14.274;2022-10-16T17:09:39;5.95;;;3.20;;
34926;SDS011;21132;48.308;14.274;2022-10-16T17:12:07;5.30;;;3.30;;
34926;SDS011;21132;48.308;14.274;2022-10-16T17:14:37;5.63;;;3.53;;